sensor_id;sensor_type;location;lat;lon;timestamp;temperature;humidity
21772;DHT22;11047;47.904;8.110;2023-03-01T00:01:25;-1.20;99.90
21772;DHT22;11047;47.904;8.110;2023-03-01T00:03:53;-2.10;99.90
21772;DHT22;11047;47.904;8.110;2023-03-01T00:06:21;-2.10;99.90
21772;DHT22;11047;47.904;8.110;2023-03-01T00:08:48;-2.00;99.90
21772;DHT22;11047;47.904;8.110;2023-03-01T00:11:18;-2.00;99.90
21772;DHT22;11047;47.904;8.110;2023-03-01T00:13:46;-2.00;99.90
21772;DHT22;11047;47.904;8.110;2023-03-01T00:16:17;-2.00;99.90
21772;DHT22;11047;47.904;8.110;2023-03-01T00:18:44;-2.00;99.90
21772;DHT22;11047;47.904;8.110;2023-03-01T00:21:11;-2.00;99.90
21772;DHT22;11047;47.904;8.110;2023-03-01T00:23:38;-2.00;99.90
21772;DHT22;11047;47.904;8.110;2023-03-01T00:26:07;-2.00;99.90
21772;DHT22;11047;47.904;8.110;2023-03-01T00:28:34;-2.00;99.90
21772;DHT22;11047;47.904;8.110;2023-03-01T00:31:03;-1.90;99.90
21772;DHT22;11047;47.904;8.110;2023-03-01T00:33:32;-2.00;99.90
21772;DHT22;11047;47.904;8.110;2023-03-01T00:35:59;-1.90;99.90
21772;DHT22;11047;47.904;8.110;2023-03-01T00:38:26;-2.00;99.90
21772;DHT22;11047;47.904;8.110;2023-03-01T00:40:54;-2.00;99.90
21772;DHT22;11047;47.904;8.110;2023-03-01T00:43:21;-2.00;99.90
21772;DHT22;11047;47.904;8.110;2023-03-01T00:45:48;-2.10;99.90
21772;DHT22;11047;47.904;8.110;2023-03-01T00:48:15;-2.00;99.90
21772;DHT22;11047;47.904;8.110;2023-03-01T00:50:43;-1.80;99.90
21772;DHT22;11047;47.904;8.110;2023-03-01T00:53:10;-2.00;99.90
21772;DHT22;11047;47.904;8.110;2023-03-01T00:55:37;-2.10;99.90
21772;DHT22;11047;47.904;8.110;2023-03-01T00:58:04;-2.10;99.90
21772;DHT22;11047;47.904;8.110;2023-03-01T01:00:31;-2.10;99.90
21772;DHT22;11047;47.904;8.110;2023-03-01T01:02:57;-2.10;99.90
21772;DHT22;11047;47.904;8.110;2023-03-01T01:05:24;-2.10;99.90
21772;DHT22;11047;47.904;8.110;2023-03-01T01:07:53;-2.10;99.90
21772;DHT22;11047;47.904;8.110;2023-03-01T01:10:19;-2.10;99.90
21772;DHT22;11047;47.904;8.110;2023-03-01T01:12:46;-2.20;99.90
21772;DHT22;11047;47.904;8.110;2023-03-01T01:15:13;-2.20;99.90
21772;DHT22;11047;47.904;8.110;2023-03-01T01:17:42;-2.20;99.90
21772;DHT22;11047;47.904;8.110;2023-03-01T01:20:10;-2.20;99.90
21772;DHT22;11047;47.904;8.110;2023-03-01T01:22:37;-2.10;99.90
21772;DHT22;11047;47.904;8.110;2023-03-01T01:25:06;-2.00;99.90
21772;DHT22;11047;47.904;8.110;2023-03-01T01:27:33;-2.20;99.90
21772;DHT22;11047;47.904;8.110;2023-03-01T01:29:59;-2.20;99.90
21772;DHT22;11047;47.904;8.110;2023-03-01T01:32:26;-2.10;99.90
21772;DHT22;11047;47.904;8.110;2023-03-01T01:34:53;-1.50;99.90
21772;DHT22;11047;47.904;8.110;2023-03-01T01:37:21;-2.10;99.90
21772;DHT22;11047;47.904;8.110;2023-03-01T01:39:48;-2.10;99.90
21772;DHT22;11047;47.904;8.110;2023-03-01T01:42:17;-2.10;99.90
21772;DHT22;11047;47.904;8.110;2023-03-01T01:44:46;-2.10;99.90
21772;DHT22;11047;47.904;8.110;2023-03-01T01:47:16;-2.20;99.90
21772;DHT22;11047;47.904;8.110;2023-03-01T01:49:47;-2.10;99.90
21772;DHT22;11047;47.904;8.110;2023-03-01T01:52:18;-2.10;99.90
21772;DHT22;11047;47.904;8.110;2023-03-01T01:54:49;-2.10;99.90
21772;DHT22;11047;47.904;8.110;2023-03-01T01:57:20;-2.10;99.90
21772;DHT22;11047;47.904;8.110;2023-03-01T01:59:51;-1.50;99.90
21772;DHT22;11047;47.904;8.110;2023-03-01T02:02:19;-2.20;99.90
21772;DHT22;11047;47.904;8.110;2023-03-01T02:04:47;-2.10;99.90
21772;DHT22;11047;47.904;8.110;2023-03-01T02:07:16;-2.10;99.90
21772;DHT22;11047;47.904;8.110;2023-03-01T02:09:46;-1.50;99.90
21772;DHT22;11047;47.904;8.110;2023-03-01T02:12:14;-2.10;99.90
21772;DHT22;11047;47.904;8.110;2023-03-01T02:14:44;-2.10;99.90
21772;DHT22;11047;47.904;8.110;2023-03-01T02:17:11;-2.10;99.90
21772;DHT22;11047;47.904;8.110;2023-03-01T02:19:47;-2.10;99.90
21772;DHT22;11047;47.904;8.110;2023-03-01T02:22:21;-2.10;99.90
21772;DHT22;11047;47.904;8.110;2023-03-01T02:25:00;-2.10;99.90
21772;DHT22;11047;47.904;8.110;2023-03-01T02:27:35;-2.10;99.90
21772;DHT22;11047;47.904;8.110;2023-03-01T02:30:06;-2.10;99.90
21772;DHT22;11047;47.904;8.110;2023-03-01T02:32:38;-2.10;99.90
21772;DHT22;11047;47.904;8.110;2023-03-01T02:35:09;-2.10;99.90
21772;DHT22;11047;47.904;8.110;2023-03-01T02:37:37;-2.10;99.90
21772;DHT22;11047;47.904;8.110;2023-03-01T02:40:07;-2.00;99.90
21772;DHT22;11047;47.904;8.110;2023-03-01T02:42:41;-2.00;99.90
21772;DHT22;11047;47.904;8.110;2023-03-01T02:45:11;-2.10;99.90
21772;DHT22;11047;47.904;8.110;2023-03-01T02:47:38;-2.00;99.90
21772;DHT22;11047;47.904;8.110;2023-03-01T02:50:14;-2.10;99.90
21772;DHT22;11047;47.904;8.110;2023-03-01T02:52:46;-2.10;99.90
21772;DHT22;11047;47.904;8.110;2023-03-01T02:55:16;-2.00;99.90
21772;DHT22;11047;47.904;8.110;2023-03-01T02:57:45;-2.00;99.90
21772;DHT22;11047;47.904;8.110;2023-03-01T03:00:20;-2.00;99.90
21772;DHT22;11047;47.904;8.110;2023-03-01T03:02:48;-2.00;99.90
21772;DHT22;11047;47.904;8.110;2023-03-01T03:05:18;-1.90;99.90
21772;DHT22;11047;47.904;8.110;2023-03-01T03:07:46;-2.00;99.90
21772;DHT22;11047;47.904;8.110;2023-03-01T03:10:16;-2.00;99.90
21772;DHT22;11047;47.904;8.110;2023-03-01T03:12:49;-2.00;99.90
21772;DHT22;11047;47.904;8.110;2023-03-01T03:15:18;-1.90;99.90
21772;DHT22;11047;47.904;8.110;2023-03-01T03:17:46;-1.90;99.90
21772;DHT22;11047;47.904;8.110;2023-03-01T03:20:15;-1.50;99.90
21772;DHT22;11047;47.904;8.110;2023-03-01T03:22:44;-1.90;99.90
21772;DHT22;11047;47.904;8.110;2023-03-01T03:25:11;-1.80;99.90
21772;DHT22;11047;47.904;8.110;2023-03-01T03:27:38;-1.80;99.90
21772;DHT22;11047;47.904;8.110;2023-03-01T03:30:07;-1.90;99.90
21772;DHT22;11047;47.904;8.110;2023-03-01T03:32:36;-1.80;99.90
21772;DHT22;11047;47.904;8.110;2023-03-01T03:35:04;-1.80;99.90
21772;DHT22;11047;47.904;8.110;2023-03-01T03:37:35;-1.80;99.90
21772;DHT22;11047;47.904;8.110;2023-03-01T03:40:20;-1.90;99.90
21772;DHT22;11047;47.904;8.110;2023-03-01T03:42:46;-1.80;99.90
21772;DHT22;11047;47.904;8.110;2023-03-01T03:45:14;-1.90;99.90
21772;DHT22;11047;47.904;8.110;2023-03-01T03:47:42;-1.80;99.90
21772;DHT22;11047;47.904;8.110;2023-03-01T03:50:10;-1.80;99.90
21772;DHT22;11047;47.904;8.110;2023-03-01T03:52:37;-1.90;99.90
21772;DHT22;11047;47.904;8.110;2023-03-01T03:55:05;-1.60;99.90
21772;DHT22;11047;47.904;8.110;2023-03-01T03:57:36;-1.80;99.90
21772;DHT22;11047;47.904;8.110;2023-03-01T04:00:04;-1.80;99.90
21772;DHT22;11047;47.904;8.110;2023-03-01T04:02:31;-1.80;99.90
21772;DHT22;11047;47.904;8.110;2023-03-01T04:04:59;-1.80;99.90
21772;DHT22;11047;47.904;8.110;2023-03-01T04:07:26;-1.80;99.90
21772;DHT22;11047;47.904;8.110;2023-03-01T04:09:53;-1.80;99.90
21772;DHT22;11047;47.904;8.110;2023-03-01T04:12:20;-1.80;99.90
21772;DHT22;11047;47.904;8.110;2023-03-01T04:14:48;-1.80;99.90
21772;DHT22;11047;47.904;8.110;2023-03-01T04:17:15;-1.80;99.90
21772;DHT22;11047;47.904;8.110;2023-03-01T04:19:42;-1.70;99.90
21772;DHT22;11047;47.904;8.110;2023-03-01T04:22:10;-1.70;99.90
21772;DHT22;11047;47.904;8.110;2023-03-01T04:24:43;-1.70;99.90
21772;DHT22;11047;47.904;8.110;2023-03-01T04:27:10;-1.80;99.90
21772;DHT22;11047;47.904;8.110;2023-03-01T04:29:37;-1.70;99.90
21772;DHT22;11047;47.904;8.110;2023-03-01T04:32:04;-1.70;99.90
21772;DHT22;11047;47.904;8.110;2023-03-01T04:34:31;-1.80;99.90
21772;DHT22;11047;47.904;8.110;2023-03-01T04:36:58;-1.80;99.90
21772;DHT22;11047;47.904;8.110;2023-03-01T04:39:26;-1.80;99.90
21772;DHT22;11047;47.904;8.110;2023-03-01T04:41:53;-1.80;99.90
21772;DHT22;11047;47.904;8.110;2023-03-01T04:44:19;-1.80;99.90
21772;DHT22;11047;47.904;8.110;2023-03-01T04:46:48;-1.80;99.90
21772;DHT22;11047;47.904;8.110;2023-03-01T04:49:15;-1.70;99.90
21772;DHT22;11047;47.904;8.110;2023-03-01T04:51:42;-1.80;99.90
21772;DHT22;11047;47.904;8.110;2023-03-01T04:54:09;-0.90;99.90
21772;DHT22;11047;47.904;8.110;2023-03-01T04:56:37;-1.80;99.90
21772;DHT22;11047;47.904;8.110;2023-03-01T04:59:04;-1.60;99.90
21772;DHT22;11047;47.904;8.110;2023-03-01T05:01:33;-1.70;99.90
21772;DHT22;11047;47.904;8.110;2023-03-01T05:04:01;-0.90;99.90
21772;DHT22;11047;47.904;8.110;2023-03-01T05:06:30;-1.10;99.90
21772;DHT22;11047;47.904;8.110;2023-03-01T05:08:58;-1.60;99.90
21772;DHT22;11047;47.904;8.110;2023-03-01T05:11:25;-1.60;99.90
21772;DHT22;11047;47.904;8.110;2023-03-01T05:13:54;-1.60;99.90
21772;DHT22;11047;47.904;8.110;2023-03-01T05:16:21;-1.70;99.90
21772;DHT22;11047;47.904;8.110;2023-03-01T05:18:48;-1.60;99.90
21772;DHT22;11047;47.904;8.110;2023-03-01T05:21:17;-1.70;99.90
21772;DHT22;11047;47.904;8.110;2023-03-01T05:23:44;-1.60;99.90
21772;DHT22;11047;47.904;8.110;2023-03-01T05:26:13;-1.60;99.90
21772;DHT22;11047;47.904;8.110;2023-03-01T05:28:40;-1.60;99.90
21772;DHT22;11047;47.904;8.110;2023-03-01T05:31:09;-1.60;99.90
21772;DHT22;11047;47.904;8.110;2023-03-01T05:33:36;-1.70;99.90
21772;DHT22;11047;47.904;8.110;2023-03-01T05:36:04;-1.70;99.90
21772;DHT22;11047;47.904;8.110;2023-03-01T05:38:31;-1.80;99.90
21772;DHT22;11047;47.904;8.110;2023-03-01T05:40:58;-1.80;99.90
21772;DHT22;11047;47.904;8.110;2023-03-01T05:43:24;-1.80;99.90
21772;DHT22;11047;47.904;8.110;2023-03-01T05:45:51;-1.90;99.90
21772;DHT22;11047;47.904;8.110;2023-03-01T05:48:20;-1.80;99.90
21772;DHT22;11047;47.904;8.110;2023-03-01T05:50:46;-1.80;99.90
21772;DHT22;11047;47.904;8.110;2023-03-01T05:53:15;-1.80;99.90
21772;DHT22;11047;47.904;8.110;2023-03-01T05:55:43;-1.70;99.90
21772;DHT22;11047;47.904;8.110;2023-03-01T05:58:13;-0.80;99.90
21772;DHT22;11047;47.904;8.110;2023-03-01T06:00:41;-1.70;99.90
21772;DHT22;11047;47.904;8.110;2023-03-01T06:03:10;-1.70;99.90
21772;DHT22;11047;47.904;8.110;2023-03-01T06:05:39;-1.20;99.90
21772;DHT22;11047;47.904;8.110;2023-03-01T06:08:06;-1.70;99.90
21772;DHT22;11047;47.904;8.110;2023-03-01T06:10:33;-1.00;99.90
21772;DHT22;11047;47.904;8.110;2023-03-01T06:13:00;-1.60;99.90
21772;DHT22;11047;47.904;8.110;2023-03-01T06:15:27;-1.70;99.90
21772;DHT22;11047;47.904;8.110;2023-03-01T06:17:55;-1.70;99.90
21772;DHT22;11047;47.904;8.110;2023-03-01T06:20:24;-1.70;99.90
21772;DHT22;11047;47.904;8.110;2023-03-01T06:22:59;-1.70;99.90
21772;DHT22;11047;47.904;8.110;2023-03-01T06:25:27;-1.70;99.90
21772;DHT22;11047;47.904;8.110;2023-03-01T06:27:54;-1.80;99.90
21772;DHT22;11047;47.904;8.110;2023-03-01T06:30:22;-1.80;99.90
21772;DHT22;11047;47.904;8.110;2023-03-01T06:32:49;-1.70;99.90
21772;DHT22;11047;47.904;8.110;2023-03-01T06:35:17;-1.80;99.90
21772;DHT22;11047;47.904;8.110;2023-03-01T06:37:45;-1.80;99.90
21772;DHT22;11047;47.904;8.110;2023-03-01T06:40:14;-1.10;99.90
21772;DHT22;11047;47.904;8.110;2023-03-01T06:42:44;-1.80;99.90
21772;DHT22;11047;47.904;8.110;2023-03-01T06:45:13;-1.70;99.90
21772;DHT22;11047;47.904;8.110;2023-03-01T06:47:40;-1.20;99.90
21772;DHT22;11047;47.904;8.110;2023-03-01T06:50:08;-1.60;99.90
21772;DHT22;11047;47.904;8.110;2023-03-01T06:52:35;-1.60;99.90
21772;DHT22;11047;47.904;8.110;2023-03-01T06:55:03;-1.60;99.90
21772;DHT22;11047;47.904;8.110;2023-03-01T06:57:31;-1.60;99.90
21772;DHT22;11047;47.904;8.110;2023-03-01T06:59:58;-1.60;99.90
21772;DHT22;11047;47.904;8.110;2023-03-01T07:02:25;-1.50;99.90
21772;DHT22;11047;47.904;8.110;2023-03-01T07:04:52;-1.50;99.90
21772;DHT22;11047;47.904;8.110;2023-03-01T07:07:19;-1.50;99.90
21772;DHT22;11047;47.904;8.110;2023-03-01T07:09:46;-1.50;99.90
21772;DHT22;11047;47.904;8.110;2023-03-01T07:12:13;-1.50;99.90
21772;DHT22;11047;47.904;8.110;2023-03-01T07:14:43;-1.50;99.90
21772;DHT22;11047;47.904;8.110;2023-03-01T07:17:10;-1.40;99.90
21772;DHT22;11047;47.904;8.110;2023-03-01T07:19:37;-1.50;99.90
21772;DHT22;11047;47.904;8.110;2023-03-01T07:22:04;-1.40;99.90
21772;DHT22;11047;47.904;8.110;2023-03-01T07:24:33;-0.90;99.90
21772;DHT22;11047;47.904;8.110;2023-03-01T07:27:00;-1.40;99.90
21772;DHT22;11047;47.904;8.110;2023-03-01T07:45:25;-1.30;99.90
21772;DHT22;11047;47.904;8.110;2023-03-01T07:47:52;-1.40;99.90
21772;DHT22;11047;47.904;8.110;2023-03-01T07:50:19;-1.30;99.90
21772;DHT22;11047;47.904;8.110;2023-03-01T07:52:47;-1.30;99.90
21772;DHT22;11047;47.904;8.110;2023-03-01T07:55:14;-1.40;99.90
21772;DHT22;11047;47.904;8.110;2023-03-01T07:57:41;-1.30;99.90
21772;DHT22;11047;47.904;8.110;2023-03-01T08:00:11;-1.20;99.90
21772;DHT22;11047;47.904;8.110;2023-03-01T08:02:39;-1.20;99.90
21772;DHT22;11047;47.904;8.110;2023-03-01T08:05:07;-1.00;99.90
21772;DHT22;11047;47.904;8.110;2023-03-01T08:07:35;-1.10;99.90
21772;DHT22;11047;47.904;8.110;2023-03-01T08:10:02;-0.10;99.90
21772;DHT22;11047;47.904;8.110;2023-03-01T08:12:29;-1.20;99.90
21772;DHT22;11047;47.904;8.110;2023-03-01T08:14:56;-1.20;99.90
21772;DHT22;11047;47.904;8.110;2023-03-01T08:17:23;-1.10;99.90
21772;DHT22;11047;47.904;8.110;2023-03-01T08:19:51;-1.10;99.90
21772;DHT22;11047;47.904;8.110;2023-03-01T08:22:18;-1.10;99.90
21772;DHT22;11047;47.904;8.110;2023-03-01T08:24:46;-1.20;99.90
21772;DHT22;11047;47.904;8.110;2023-03-01T08:27:15;-1.20;99.90
21772;DHT22;11047;47.904;8.110;2023-03-01T08:29:42;-1.10;99.90
21772;DHT22;11047;47.904;8.110;2023-03-01T08:32:08;-1.10;99.90
21772;DHT22;11047;47.904;8.110;2023-03-01T08:34:35;-0.70;99.90
21772;DHT22;11047;47.904;8.110;2023-03-01T08:37:04;-1.00;99.90
21772;DHT22;11047;47.904;8.110;2023-03-01T08:39:31;-0.90;99.90
21772;DHT22;11047;47.904;8.110;2023-03-01T08:41:58;-0.10;99.90
21772;DHT22;11047;47.904;8.110;2023-03-01T08:44:25;-0.10;99.90
21772;DHT22;11047;47.904;8.110;2023-03-01T08:46:52;-0.80;99.90
21772;DHT22;11047;47.904;8.110;2023-03-01T08:49:21;-0.90;99.90
21772;DHT22;11047;47.904;8.110;2023-03-01T08:51:48;-0.80;99.90
21772;DHT22;11047;47.904;8.110;2023-03-01T08:54:18;-0.90;99.90
21772;DHT22;11047;47.904;8.110;2023-03-01T08:56:45;-0.90;99.90
21772;DHT22;11047;47.904;8.110;2023-03-01T08:59:14;-0.80;99.90
21772;DHT22;11047;47.904;8.110;2023-03-01T09:01:41;-0.80;99.90
21772;DHT22;11047;47.904;8.110;2023-03-01T09:04:09;-0.70;99.90
21772;DHT22;11047;47.904;8.110;2023-03-01T09:06:37;-0.30;99.90
21772;DHT22;11047;47.904;8.110;2023-03-01T09:09:05;-0.70;99.90
21772;DHT22;11047;47.904;8.110;2023-03-01T09:11:34;-0.70;99.90
21772;DHT22;11047;47.904;8.110;2023-03-01T09:14:05;-0.80;99.90
21772;DHT22;11047;47.904;8.110;2023-03-01T09:16:32;-0.70;99.90
21772;DHT22;11047;47.904;8.110;2023-03-01T09:19:02;-0.60;99.90
21772;DHT22;11047;47.904;8.110;2023-03-01T09:21:29;-0.50;99.90
21772;DHT22;11047;47.904;8.110;2023-03-01T09:23:57;-0.40;99.90
21772;DHT22;11047;47.904;8.110;2023-03-01T09:26:24;-0.40;99.90
21772;DHT22;11047;47.904;8.110;2023-03-01T09:28:53;0.20;99.90
21772;DHT22;11047;47.904;8.110;2023-03-01T09:31:22;-0.20;99.90
21772;DHT22;11047;47.904;8.110;2023-03-01T09:33:51;-0.20;99.90
21772;DHT22;11047;47.904;8.110;2023-03-01T09:36:19;-0.20;99.90
21772;DHT22;11047;47.904;8.110;2023-03-01T09:38:47;-0.10;99.90
21772;DHT22;11047;47.904;8.110;2023-03-01T09:44:13;0.10;99.90
21772;DHT22;11047;47.904;8.110;2023-03-01T09:46:44;-0.10;99.90
21772;DHT22;11047;47.904;8.110;2023-03-01T09:49:15;-0.10;99.90
21772;DHT22;11047;47.904;8.110;2023-03-01T09:51:53;-0.20;99.90
21772;DHT22;11047;47.904;8.110;2023-03-01T09:54:21;-0.20;99.90
21772;DHT22;11047;47.904;8.110;2023-03-01T09:56:57;-0.10;99.90
21772;DHT22;11047;47.904;8.110;2023-03-01T09:59:30;-0.10;99.90
21772;DHT22;11047;47.904;8.110;2023-03-01T10:02:11;0.00;99.90
21772;DHT22;11047;47.904;8.110;2023-03-01T10:04:46;0.10;99.90
21772;DHT22;11047;47.904;8.110;2023-03-01T10:07:27;0.50;99.90
21772;DHT22;11047;47.904;8.110;2023-03-01T10:09:54;-0.20;99.90
21772;DHT22;11047;47.904;8.110;2023-03-01T10:12:26;0.20;99.90
21772;DHT22;11047;47.904;8.110;2023-03-01T10:15:02;-0.10;99.90
21772;DHT22;11047;47.904;8.110;2023-03-01T10:17:34;-0.10;99.90
21772;DHT22;11047;47.904;8.110;2023-03-01T10:20:21;0.00;99.90
21772;DHT22;11047;47.904;8.110;2023-03-01T10:22:49;0.20;99.90
21772;DHT22;11047;47.904;8.110;2023-03-01T10:25:28;0.40;99.90
21772;DHT22;11047;47.904;8.110;2023-03-01T10:28:02;0.30;99.90
21772;DHT22;11047;47.904;8.110;2023-03-01T10:30:36;0.40;99.90
21772;DHT22;11047;47.904;8.110;2023-03-01T10:33:10;0.40;99.90
21772;DHT22;11047;47.904;8.110;2023-03-01T10:35:40;0.40;99.90
21772;DHT22;11047;47.904;8.110;2023-03-01T10:38:09;0.50;99.90
21772;DHT22;11047;47.904;8.110;2023-03-01T10:40:50;0.30;99.90
21772;DHT22;11047;47.904;8.110;2023-03-01T10:43:17;0.50;99.90
21772;DHT22;11047;47.904;8.110;2023-03-01T10:45:47;0.20;99.90
21772;DHT22;11047;47.904;8.110;2023-03-01T10:48:16;0.30;99.90
21772;DHT22;11047;47.904;8.110;2023-03-01T10:50:45;0.30;99.90
21772;DHT22;11047;47.904;8.110;2023-03-01T10:53:27;0.20;99.90
21772;DHT22;11047;47.904;8.110;2023-03-01T10:56:01;0.40;99.90
21772;DHT22;11047;47.904;8.110;2023-03-01T10:58:29;0.50;99.90
21772;DHT22;11047;47.904;8.110;2023-03-01T11:00:59;0.70;99.90
21772;DHT22;11047;47.904;8.110;2023-03-01T11:03:28;0.80;99.90
21772;DHT22;11047;47.904;8.110;2023-03-01T11:05:59;0.70;99.90
21772;DHT22;11047;47.904;8.110;2023-03-01T11:11:22;0.60;99.90
21772;DHT22;11047;47.904;8.110;2023-03-01T11:14:00;0.80;99.90
21772;DHT22;11047;47.904;8.110;2023-03-01T11:16:35;1.00;99.90
21772;DHT22;11047;47.904;8.110;2023-03-01T11:19:20;1.50;99.90
21772;DHT22;11047;47.904;8.110;2023-03-01T11:21:56;1.50;99.90
21772;DHT22;11047;47.904;8.110;2023-03-01T11:24:29;1.60;99.90
21772;DHT22;11047;47.904;8.110;2023-03-01T11:26:56;1.60;99.90
21772;DHT22;11047;47.904;8.110;2023-03-01T11:29:30;1.60;99.90
21772;DHT22;11047;47.904;8.110;2023-03-01T11:32:02;1.70;99.90
21772;DHT22;11047;47.904;8.110;2023-03-01T11:34:38;1.60;99.90
21772;DHT22;11047;47.904;8.110;2023-03-01T11:37:15;1.60;99.90
21772;DHT22;11047;47.904;8.110;2023-03-01T11:39:49;1.60;99.90
21772;DHT22;11047;47.904;8.110;2023-03-01T11:42:20;1.80;99.90
21772;DHT22;11047;47.904;8.110;2023-03-01T11:44:50;1.70;99.90
21772;DHT22;11047;47.904;8.110;2023-03-01T11:47:33;1.60;99.90
21772;DHT22;11047;47.904;8.110;2023-03-01T11:50:16;1.60;99.90
21772;DHT22;11047;47.904;8.110;2023-03-01T11:53:00;1.50;99.90
21772;DHT22;11047;47.904;8.110;2023-03-01T11:55:36;1.40;99.90
21772;DHT22;11047;47.904;8.110;2023-03-01T11:58:18;1.40;99.90
21772;DHT22;11047;47.904;8.110;2023-03-01T12:04:02;1.40;99.90
21772;DHT22;11047;47.904;8.110;2023-03-01T12:06:50;1.30;99.90
21772;DHT22;11047;47.904;8.110;2023-03-01T12:09:38;1.50;99.90
21772;DHT22;11047;47.904;8.110;2023-03-01T12:12:27;1.40;99.90
21772;DHT22;11047;47.904;8.110;2023-03-01T12:18:12;1.60;99.90
21772;DHT22;11047;47.904;8.110;2023-03-01T12:20:42;1.50;99.90
21772;DHT22;11047;47.904;8.110;2023-03-01T12:23:37;1.60;99.90
21772;DHT22;11047;47.904;8.110;2023-03-01T12:26:10;1.70;99.90
21772;DHT22;11047;47.904;8.110;2023-03-01T12:28:52;1.80;99.90
21772;DHT22;11047;47.904;8.110;2023-03-01T12:31:38;1.90;99.90
21772;DHT22;11047;47.904;8.110;2023-03-01T12:34:21;1.90;99.90
21772;DHT22;11047;47.904;8.110;2023-03-01T12:37:00;1.90;99.90
21772;DHT22;11047;47.904;8.110;2023-03-01T12:39:42;2.10;99.90
21772;DHT22;11047;47.904;8.110;2023-03-01T12:42:16;2.20;99.90
21772;DHT22;11047;47.904;8.110;2023-03-01T12:44:57;2.30;99.90
21772;DHT22;11047;47.904;8.110;2023-03-01T12:47:49;2.10;99.90
21772;DHT22;11047;47.904;8.110;2023-03-01T12:50:21;2.20;99.90
21772;DHT22;11047;47.904;8.110;2023-03-01T12:52:53;2.20;99.90
21772;DHT22;11047;47.904;8.110;2023-03-01T12:55:28;2.10;99.90
21772;DHT22;11047;47.904;8.110;2023-03-01T12:58:02;2.10;99.90
21772;DHT22;11047;47.904;8.110;2023-03-01T13:00:35;1.80;99.90
21772;DHT22;11047;47.904;8.110;2023-03-01T13:03:10;1.80;99.90
21772;DHT22;11047;47.904;8.110;2023-03-01T13:05:47;2.00;99.90
21772;DHT22;11047;47.904;8.110;2023-03-01T13:08:22;2.10;99.90
21772;DHT22;11047;47.904;8.110;2023-03-01T13:10:56;2.30;99.90
21772;DHT22;11047;47.904;8.110;2023-03-01T13:13:26;2.20;99.90
21772;DHT22;11047;47.904;8.110;2023-03-01T13:15:54;2.40;99.90
21772;DHT22;11047;47.904;8.110;2023-03-01T13:18:30;2.40;99.90
21772;DHT22;11047;47.904;8.110;2023-03-01T13:20:59;2.60;99.90
21772;DHT22;11047;47.904;8.110;2023-03-01T13:23:30;2.60;99.90
21772;DHT22;11047;47.904;8.110;2023-03-01T13:26:07;2.60;99.90
21772;DHT22;11047;47.904;8.110;2023-03-01T13:34:57;2.30;99.90
21772;DHT22;11047;47.904;8.110;2023-03-01T13:37:32;2.30;99.90
21772;DHT22;11047;47.904;8.110;2023-03-01T13:40:05;2.40;99.90
21772;DHT22;11047;47.904;8.110;2023-03-01T13:42:45;2.30;99.90
21772;DHT22;11047;47.904;8.110;2023-03-01T13:45:25;2.20;99.90
21772;DHT22;11047;47.904;8.110;2023-03-01T13:48:01;2.10;99.90
21772;DHT22;11047;47.904;8.110;2023-03-01T13:50:32;2.20;99.90
21772;DHT22;11047;47.904;8.110;2023-03-01T13:53:03;2.20;99.90
21772;DHT22;11047;47.904;8.110;2023-03-01T13:55:37;2.30;99.90
21772;DHT22;11047;47.904;8.110;2023-03-01T13:58:15;2.20;99.90
21772;DHT22;11047;47.904;8.110;2023-03-01T14:00:42;2.30;99.90
21772;DHT22;11047;47.904;8.110;2023-03-01T14:03:12;2.40;99.90
21772;DHT22;11047;47.904;8.110;2023-03-01T14:05:57;2.40;99.90
21772;DHT22;11047;47.904;8.110;2023-03-01T14:08:27;2.40;99.90
21772;DHT22;11047;47.904;8.110;2023-03-01T14:14:05;2.60;99.90
21772;DHT22;11047;47.904;8.110;2023-03-01T14:16:39;2.40;99.90
21772;DHT22;11047;47.904;8.110;2023-03-01T14:19:15;2.60;99.90
21772;DHT22;11047;47.904;8.110;2023-03-01T14:21:44;2.50;99.90
21772;DHT22;11047;47.904;8.110;2023-03-01T14:24:18;2.50;99.90
21772;DHT22;11047;47.904;8.110;2023-03-01T14:26:46;2.70;99.90
21772;DHT22;11047;47.904;8.110;2023-03-01T14:29:34;2.60;99.90
21772;DHT22;11047;47.904;8.110;2023-03-01T14:32:15;2.50;99.90
21772;DHT22;11047;47.904;8.110;2023-03-01T14:34:45;2.50;99.90
21772;DHT22;11047;47.904;8.110;2023-03-01T14:37:20;2.50;99.90
21772;DHT22;11047;47.904;8.110;2023-03-01T14:39:47;2.50;99.90
21772;DHT22;11047;47.904;8.110;2023-03-01T14:42:15;2.50;99.90
21772;DHT22;11047;47.904;8.110;2023-03-01T14:44:46;2.60;99.90
21772;DHT22;11047;47.904;8.110;2023-03-01T14:47:15;2.60;99.90
21772;DHT22;11047;47.904;8.110;2023-03-01T14:49:43;2.70;99.90
21772;DHT22;11047;47.904;8.110;2023-03-01T14:52:19;3.40;99.90
21772;DHT22;11047;47.904;8.110;2023-03-01T14:54:48;2.90;99.90
21772;DHT22;11047;47.904;8.110;2023-03-01T14:57:19;2.80;99.90
21772;DHT22;11047;47.904;8.110;2023-03-01T14:59:48;2.90;99.90
21772;DHT22;11047;47.904;8.110;2023-03-01T15:02:19;2.90;99.90
21772;DHT22;11047;47.904;8.110;2023-03-01T15:04:49;2.90;99.90
21772;DHT22;11047;47.904;8.110;2023-03-01T15:07:17;3.00;99.90
21772;DHT22;11047;47.904;8.110;2023-03-01T15:09:45;2.90;99.90
21772;DHT22;11047;47.904;8.110;2023-03-01T15:12:41;2.80;99.90
21772;DHT22;11047;47.904;8.110;2023-03-01T15:15:37;2.70;99.90
21772;DHT22;11047;47.904;8.110;2023-03-01T15:18:14;2.80;99.90
21772;DHT22;11047;47.904;8.110;2023-03-01T15:20:42;2.90;99.90
21772;DHT22;11047;47.904;8.110;2023-03-01T15:23:19;3.00;99.90
21772;DHT22;11047;47.904;8.110;2023-03-01T15:25:47;2.90;99.90
21772;DHT22;11047;47.904;8.110;2023-03-01T15:28:23;2.80;99.90
21772;DHT22;11047;47.904;8.110;2023-03-01T15:30:57;2.80;99.90
21772;DHT22;11047;47.904;8.110;2023-03-01T15:33:36;2.80;99.90
21772;DHT22;11047;47.904;8.110;2023-03-01T15:36:30;2.80;99.90
21772;DHT22;11047;47.904;8.110;2023-03-01T15:38:58;2.70;99.90
21772;DHT22;11047;47.904;8.110;2023-03-01T15:41:27;2.70;99.90
21772;DHT22;11047;47.904;8.110;2023-03-01T15:43:57;3.00;99.90
21772;DHT22;11047;47.904;8.110;2023-03-01T15:46:31;2.80;99.90
21772;DHT22;11047;47.904;8.110;2023-03-01T15:49:02;2.80;99.90
21772;DHT22;11047;47.904;8.110;2023-03-01T15:51:34;2.80;99.90
21772;DHT22;11047;47.904;8.110;2023-03-01T15:54:05;2.80;99.90
21772;DHT22;11047;47.904;8.110;2023-03-01T15:56:33;2.80;99.90
21772;DHT22;11047;47.904;8.110;2023-03-01T15:59:02;2.60;99.90
21772;DHT22;11047;47.904;8.110;2023-03-01T16:01:30;3.30;99.90
21772;DHT22;11047;47.904;8.110;2023-03-01T16:03:59;2.60;99.90
21772;DHT22;11047;47.904;8.110;2023-03-01T16:06:26;2.60;99.90
21772;DHT22;11047;47.904;8.110;2023-03-01T16:08:53;2.50;99.90
21772;DHT22;11047;47.904;8.110;2023-03-01T16:11:20;2.50;99.90
21772;DHT22;11047;47.904;8.110;2023-03-01T16:13:48;2.40;99.90
21772;DHT22;11047;47.904;8.110;2023-03-01T16:16:16;2.50;99.90
21772;DHT22;11047;47.904;8.110;2023-03-01T16:18:47;2.30;99.90
21772;DHT22;11047;47.904;8.110;2023-03-01T16:21:18;2.40;99.90
21772;DHT22;11047;47.904;8.110;2023-03-01T16:23:46;2.40;99.90
21772;DHT22;11047;47.904;8.110;2023-03-01T16:26:13;2.30;99.90
21772;DHT22;11047;47.904;8.110;2023-03-01T16:28:40;2.20;99.90
21772;DHT22;11047;47.904;8.110;2023-03-01T16:31:08;2.20;99.90
21772;DHT22;11047;47.904;8.110;2023-03-01T16:33:35;2.00;99.90
21772;DHT22;11047;47.904;8.110;2023-03-01T16:36:07;2.00;99.90